sensor_id;sensor_type;location;lat;lon;timestamp;P1;durP1;ratioP1;P2;durP2;ratioP2
5776;SDS011;2914;42.668;23.346;2023-02-05T00:56:26;3.92;;;3.60;;
5776;SDS011;2914;42.668;23.346;2023-02-05T00:58:55;3.60;;;3.30;;
5776;SDS011;2914;42.668;23.346;2023-02-05T01:01:25;3.85;;;3.20;;
5776;SDS011;2914;42.668;23.346;2023-02-05T01:03:54;6.00;;;3.85;;
5776;SDS011;2914;42.668;23.346;2023-02-05T01:06:23;3.92;;;3.62;;
5776;SDS011;2914;42.668;23.346;2023-02-05T01:08:52;5.97;;;3.83;;
5776;SDS011;2914;42.668;23.346;2023-02-05T01:13:16;4.45;;;4.15;;
5776;SDS011;2914;42.668;23.346;2023-02-05T01:15:45;3.87;;;3.60;;
5776;SDS011;2914;42.668;23.346;2023-02-05T01:18:15;7.62;;;3.67;;
5776;SDS011;2914;42.668;23.346;2023-02-05T01:20:44;3.40;;;3.20;;
5776;SDS011;2914;42.668;23.346;2023-02-05T01:23:13;4.15;;;3.75;;
5776;SDS011;2914;42.668;23.346;2023-02-05T01:25:42;4.05;;;3.65;;
5776;SDS011;2914;42.668;23.346;2023-02-05T01:28:12;17.60;;;8.03;;
5776;SDS011;2914;42.668;23.346;2023-02-05T01:30:41;4.50;;;3.80;;
5776;SDS011;2914;42.668;23.346;2023-02-05T01:33:14;6.15;;;4.33;;
5776;SDS011;2914;42.668;23.346;2023-02-05T01:35:52;5.53;;;3.83;;
5776;SDS011;2914;42.668;23.346;2023-02-05T01:38:21;4.03;;;3.62;;
5776;SDS011;2914;42.668;23.346;2023-02-05T01:40:50;6.45;;;3.90;;
5776;SDS011;2914;42.668;23.346;2023-02-05T01:43:19;5.95;;;3.70;;
5776;SDS011;2914;42.668;23.346;2023-02-05T01:45:50;6.40;;;4.00;;
5776;SDS011;2914;42.668;23.346;2023-02-05T01:50:28;3.65;;;3.35;;
5776;SDS011;2914;42.668;23.346;2023-02-05T01:52:54;7.12;;;3.60;;
5776;SDS011;2914;42.668;23.346;2023-02-05T01:55:26;3.55;;;3.25;;
5776;SDS011;2914;42.668;23.346;2023-02-05T01:57:57;5.62;;;3.72;;
5776;SDS011;2914;42.668;23.346;2023-02-05T02:00:28;3.55;;;3.25;;
5776;SDS011;2914;42.668;23.346;2023-02-05T02:02:57;4.50;;;4.20;;
5776;SDS011;2914;42.668;23.346;2023-02-05T02:05:26;2.98;;;2.77;;
5776;SDS011;2914;42.668;23.346;2023-02-05T02:07:56;3.35;;;3.10;;
5776;SDS011;2914;42.668;23.346;2023-02-05T02:10:25;5.15;;;3.55;;
5776;SDS011;2914;42.668;23.346;2023-02-05T02:12:54;2.98;;;2.80;;
5776;SDS011;2914;42.668;23.346;2023-02-05T02:15:26;3.65;;;3.37;;
5776;SDS011;2914;42.668;23.346;2023-02-05T02:17:56;5.58;;;3.40;;
5776;SDS011;2914;42.668;23.346;2023-02-05T02:20:34;6.25;;;3.60;;
5776;SDS011;2914;42.668;23.346;2023-02-05T02:23:07;7.80;;;4.05;;
5776;SDS011;2914;42.668;23.346;2023-02-05T02:25:51;5.97;;;4.20;;
5776;SDS011;2914;42.668;23.346;2023-02-05T02:28:31;9.23;;;4.67;;
5776;SDS011;2914;42.668;23.346;2023-02-05T02:31:03;10.15;;;3.47;;
5776;SDS011;2914;42.668;23.346;2023-02-05T02:33:35;6.53;;;4.22;;
5776;SDS011;2914;42.668;23.346;2023-02-05T02:36:09;7.33;;;4.65;;
5776;SDS011;2914;42.668;23.346;2023-02-05T02:38:41;4.35;;;3.37;;
5776;SDS011;2914;42.668;23.346;2023-02-05T02:41:13;8.95;;;4.65;;
5776;SDS011;2914;42.668;23.346;2023-02-05T02:43:47;4.87;;;3.45;;
5776;SDS011;2914;42.668;23.346;2023-02-05T02:46:20;4.00;;;3.62;;
5776;SDS011;2914;42.668;23.346;2023-02-05T02:48:50;3.72;;;3.00;;
5776;SDS011;2914;42.668;23.346;2023-02-05T02:51:22;4.25;;;3.70;;
5776;SDS011;2914;42.668;23.346;2023-02-05T02:53:54;3.25;;;2.95;;
5776;SDS011;2914;42.668;23.346;2023-02-05T02:56:25;6.92;;;4.08;;
5776;SDS011;2914;42.668;23.346;2023-02-05T02:58:56;6.33;;;3.67;;
5776;SDS011;2914;42.668;23.346;2023-02-05T03:01:29;4.53;;;2.98;;
5776;SDS011;2914;42.668;23.346;2023-02-05T03:04:03;7.05;;;3.72;;
5776;SDS011;2914;42.668;23.346;2023-02-05T03:06:33;7.65;;;4.05;;
5776;SDS011;2914;42.668;23.346;2023-02-05T03:09:05;11.70;;;4.28;;
5776;SDS011;2914;42.668;23.346;2023-02-05T03:11:36;7.40;;;3.80;;
5776;SDS011;2914;42.668;23.346;2023-02-05T03:14:40;4.37;;;3.35;;
5776;SDS011;2914;42.668;23.346;2023-02-05T03:17:09;5.08;;;3.90;;
5776;SDS011;2914;42.668;23.346;2023-02-05T03:19:40;3.95;;;3.55;;
5776;SDS011;2914;42.668;23.346;2023-02-05T03:22:09;4.25;;;3.85;;
5776;SDS011;2914;42.668;23.346;2023-02-05T03:24:38;5.45;;;3.30;;
5776;SDS011;2914;42.668;23.346;2023-02-05T03:27:08;8.33;;;4.05;;
5776;SDS011;2914;42.668;23.346;2023-02-05T03:29:38;5.30;;;3.45;;
5776;SDS011;2914;42.668;23.346;2023-02-05T03:32:13;7.58;;;4.60;;
5776;SDS011;2914;42.668;23.346;2023-02-05T03:34:50;5.92;;;3.58;;
5776;SDS011;2914;42.668;23.346;2023-02-05T03:37:30;5.40;;;3.77;;
5776;SDS011;2914;42.668;23.346;2023-02-05T03:40:04;4.47;;;4.08;;
5776;SDS011;2914;42.668;23.346;2023-02-05T03:42:39;6.08;;;4.33;;
5776;SDS011;2914;42.668;23.346;2023-02-05T03:45:19;7.08;;;4.33;;
5776;SDS011;2914;42.668;23.346;2023-02-05T03:47:57;5.00;;;3.55;;
5776;SDS011;2914;42.668;23.346;2023-02-05T03:50:32;5.22;;;3.55;;
5776;SDS011;2914;42.668;23.346;2023-02-05T03:53:05;30.15;;;4.87;;
5776;SDS011;2914;42.668;23.346;2023-02-05T03:55:37;5.28;;;3.35;;
5776;SDS011;2914;42.668;23.346;2023-02-05T03:58:09;6.33;;;4.40;;
5776;SDS011;2914;42.668;23.346;2023-02-05T04:00:39;6.28;;;4.30;;
5776;SDS011;2914;42.668;23.346;2023-02-05T04:03:09;5.80;;;4.62;;
5776;SDS011;2914;42.668;23.346;2023-02-05T04:05:38;5.97;;;4.22;;
5776;SDS011;2914;42.668;23.346;2023-02-05T04:08:07;8.68;;;3.92;;
5776;SDS011;2914;42.668;23.346;2023-02-05T04:10:36;9.63;;;4.08;;
5776;SDS011;2914;42.668;23.346;2023-02-05T04:13:06;10.65;;;5.87;;
5776;SDS011;2914;42.668;23.346;2023-02-05T04:15:34;5.75;;;3.85;;
5776;SDS011;2914;42.668;23.346;2023-02-05T04:18:04;7.20;;;4.03;;
5776;SDS011;2914;42.668;23.346;2023-02-05T04:20:33;5.62;;;3.92;;
5776;SDS011;2914;42.668;23.346;2023-02-05T04:23:02;14.90;;;6.53;;
5776;SDS011;2914;42.668;23.346;2023-02-05T04:25:31;8.03;;;4.10;;
5776;SDS011;2914;42.668;23.346;2023-02-05T04:28:02;10.08;;;4.50;;
5776;SDS011;2914;42.668;23.346;2023-02-05T04:30:32;5.35;;;3.95;;
5776;SDS011;2914;42.668;23.346;2023-02-05T04:33:02;8.43;;;4.37;;
5776;SDS011;2914;42.668;23.346;2023-02-05T04:35:31;7.12;;;4.20;;
5776;SDS011;2914;42.668;23.346;2023-02-05T04:37:59;11.97;;;4.92;;
5776;SDS011;2914;42.668;23.346;2023-02-05T04:40:28;7.53;;;4.10;;
5776;SDS011;2914;42.668;23.346;2023-02-05T04:42:57;9.95;;;4.37;;
5776;SDS011;2914;42.668;23.346;2023-02-05T04:45:27;5.17;;;3.60;;
5776;SDS011;2914;42.668;23.346;2023-02-05T04:47:58;7.92;;;4.70;;
5776;SDS011;2914;42.668;23.346;2023-02-05T04:51:50;5.83;;;3.83;;
5776;SDS011;2914;42.668;23.346;2023-02-05T04:54:19;4.00;;;3.52;;
5776;SDS011;2914;42.668;23.346;2023-02-05T04:56:48;4.35;;;3.87;;
5776;SDS011;2914;42.668;23.346;2023-02-05T04:59:17;5.95;;;3.98;;
5776;SDS011;2914;42.668;23.346;2023-02-05T05:01:46;4.10;;;2.85;;
5776;SDS011;2914;42.668;23.346;2023-02-05T05:04:15;12.55;;;4.83;;
5776;SDS011;2914;42.668;23.346;2023-02-05T05:06:44;5.60;;;3.42;;
5776;SDS011;2914;42.668;23.346;2023-02-05T05:09:13;8.25;;;4.55;;
5776;SDS011;2914;42.668;23.346;2023-02-05T05:14:21;6.75;;;4.08;;
5776;SDS011;2914;42.668;23.346;2023-02-05T05:16:50;6.05;;;3.37;;
5776;SDS011;2914;42.668;23.346;2023-02-05T05:19:19;35.58;;;5.58;;
5776;SDS011;2914;42.668;23.346;2023-02-05T05:21:48;8.03;;;4.62;;
5776;SDS011;2914;42.668;23.346;2023-02-05T05:24:18;10.38;;;5.00;;
5776;SDS011;2914;42.668;23.346;2023-02-05T05:26:47;6.87;;;4.47;;
5776;SDS011;2914;42.668;23.346;2023-02-05T05:29:16;11.78;;;4.75;;
5776;SDS011;2914;42.668;23.346;2023-02-05T05:31:45;10.18;;;4.42;;
5776;SDS011;2914;42.668;23.346;2023-02-05T05:34:15;16.48;;;6.25;;
5776;SDS011;2914;42.668;23.346;2023-02-05T05:36:44;10.23;;;4.67;;
5776;SDS011;2914;42.668;23.346;2023-02-05T05:39:13;12.73;;;5.28;;
5776;SDS011;2914;42.668;23.346;2023-02-05T05:42:00;12.80;;;5.37;;
5776;SDS011;2914;42.668;23.346;2023-02-05T05:44:47;9.25;;;4.87;;
5776;SDS011;2914;42.668;23.346;2023-02-05T05:47:17;14.93;;;4.30;;
5776;SDS011;2914;42.668;23.346;2023-02-05T05:49:47;8.40;;;4.70;;
5776;SDS011;2914;42.668;23.346;2023-02-05T05:52:16;7.12;;;3.70;;
5776;SDS011;2914;42.668;23.346;2023-02-05T05:54:45;9.00;;;4.33;;
5776;SDS011;2914;42.668;23.346;2023-02-05T05:57:14;12.90;;;5.03;;
5776;SDS011;2914;42.668;23.346;2023-02-05T05:59:43;5.95;;;4.28;;
5776;SDS011;2914;42.668;23.346;2023-02-05T06:02:12;15.93;;;6.00;;
5776;SDS011;2914;42.668;23.346;2023-02-05T06:04:41;7.70;;;4.17;;
5776;SDS011;2914;42.668;23.346;2023-02-05T06:07:10;35.20;;;9.23;;
5776;SDS011;2914;42.668;23.346;2023-02-05T06:09:39;10.72;;;5.62;;
5776;SDS011;2914;42.668;23.346;2023-02-05T06:12:08;11.33;;;5.17;;
5776;SDS011;2914;42.668;23.346;2023-02-05T06:14:52;6.42;;;4.35;;
5776;SDS011;2914;42.668;23.346;2023-02-05T06:17:23;4.72;;;4.15;;
5776;SDS011;2914;42.668;23.346;2023-02-05T06:19:53;7.10;;;4.50;;
5776;SDS011;2914;42.668;23.346;2023-02-05T06:22:24;12.82;;;5.47;;
5776;SDS011;2914;42.668;23.346;2023-02-05T06:24:53;6.15;;;3.90;;
5776;SDS011;2914;42.668;23.346;2023-02-05T06:27:22;7.03;;;3.72;;
5776;SDS011;2914;42.668;23.346;2023-02-05T06:29:52;6.72;;;4.17;;
5776;SDS011;2914;42.668;23.346;2023-02-05T06:32:29;5.12;;;4.60;;
5776;SDS011;2914;42.668;23.346;2023-02-05T06:34:58;9.10;;;6.08;;
5776;SDS011;2914;42.668;23.346;2023-02-05T06:37:27;10.50;;;4.78;;
5776;SDS011;2914;42.668;23.346;2023-02-05T06:39:56;12.23;;;6.22;;
5776;SDS011;2914;42.668;23.346;2023-02-05T06:42:58;5.50;;;5.00;;
5776;SDS011;2914;42.668;23.346;2023-02-05T06:45:27;7.10;;;5.30;;
5776;SDS011;2914;42.668;23.346;2023-02-05T06:48:11;6.80;;;5.35;;
5776;SDS011;2914;42.668;23.346;2023-02-05T06:51:20;4.30;;;4.00;;
5776;SDS011;2914;42.668;23.346;2023-02-05T06:53:49;4.90;;;4.37;;
5776;SDS011;2914;42.668;23.346;2023-02-05T06:56:20;4.53;;;3.92;;
5776;SDS011;2914;42.668;23.346;2023-02-05T06:58:49;8.60;;;4.83;;
5776;SDS011;2914;42.668;23.346;2023-02-05T07:01:27;12.18;;;5.30;;
5776;SDS011;2914;42.668;23.346;2023-02-05T07:06:32;15.25;;;5.17;;
5776;SDS011;2914;42.668;23.346;2023-02-05T07:09:59;4.80;;;4.40;;
5776;SDS011;2914;42.668;23.346;2023-02-05T07:12:28;3.87;;;3.58;;
5776;SDS011;2914;42.668;23.346;2023-02-05T07:14:57;3.75;;;3.55;;
5776;SDS011;2914;42.668;23.346;2023-02-05T07:17:26;7.20;;;4.45;;
5776;SDS011;2914;42.668;23.346;2023-02-05T07:19:55;5.10;;;4.45;;
5776;SDS011;2914;42.668;23.346;2023-02-05T07:22:25;7.75;;;4.37;;
5776;SDS011;2914;42.668;23.346;2023-02-05T07:24:54;7.92;;;4.03;;
5776;SDS011;2914;42.668;23.346;2023-02-05T07:27:23;7.28;;;4.95;;
5776;SDS011;2914;42.668;23.346;2023-02-05T07:29:52;10.15;;;5.03;;
5776;SDS011;2914;42.668;23.346;2023-02-05T07:32:21;7.28;;;5.00;;
5776;SDS011;2914;42.668;23.346;2023-02-05T07:34:50;8.90;;;5.30;;
5776;SDS011;2914;42.668;23.346;2023-02-05T07:37:21;6.67;;;4.47;;
5776;SDS011;2914;42.668;23.346;2023-02-05T07:39:50;4.03;;;3.52;;
5776;SDS011;2914;42.668;23.346;2023-02-05T07:42:19;14.28;;;4.80;;
5776;SDS011;2914;42.668;23.346;2023-02-05T07:44:48;6.45;;;4.45;;
5776;SDS011;2914;42.668;23.346;2023-02-05T07:47:17;13.08;;;4.80;;
5776;SDS011;2914;42.668;23.346;2023-02-05T07:49:46;13.68;;;5.60;;
5776;SDS011;2914;42.668;23.346;2023-02-05T07:52:15;15.40;;;6.08;;
5776;SDS011;2914;42.668;23.346;2023-02-05T07:55:14;8.63;;;5.00;;
5776;SDS011;2914;42.668;23.346;2023-02-05T07:57:43;4.28;;;3.90;;
5776;SDS011;2914;42.668;23.346;2023-02-05T08:00:13;5.53;;;4.25;;
5776;SDS011;2914;42.668;23.346;2023-02-05T08:02:57;4.87;;;4.33;;
5776;SDS011;2914;42.668;23.346;2023-02-05T08:08:08;8.85;;;5.47;;
5776;SDS011;2914;42.668;23.346;2023-02-05T08:10:38;5.40;;;4.55;;
5776;SDS011;2914;42.668;23.346;2023-02-05T08:13:08;9.73;;;5.90;;
5776;SDS011;2914;42.668;23.346;2023-02-05T08:15:39;12.82;;;5.40;;
5776;SDS011;2914;42.668;23.346;2023-02-05T08:18:08;12.23;;;6.15;;
5776;SDS011;2914;42.668;23.346;2023-02-05T08:23:17;9.00;;;5.05;;
5776;SDS011;2914;42.668;23.346;2023-02-05T08:25:46;6.47;;;4.92;;
5776;SDS011;2914;42.668;23.346;2023-02-05T08:28:16;5.40;;;4.75;;
5776;SDS011;2914;42.668;23.346;2023-02-05T08:30:45;4.85;;;4.30;;
5776;SDS011;2914;42.668;23.346;2023-02-05T08:33:14;6.40;;;4.40;;
5776;SDS011;2914;42.668;23.346;2023-02-05T08:35:44;6.00;;;4.55;;
5776;SDS011;2914;42.668;23.346;2023-02-05T08:38:13;8.73;;;5.10;;
5776;SDS011;2914;42.668;23.346;2023-02-05T08:40:42;8.60;;;4.58;;
5776;SDS011;2914;42.668;23.346;2023-02-05T08:43:25;4.22;;;3.35;;
5776;SDS011;2914;42.668;23.346;2023-02-05T08:48:31;3.15;;;2.87;;
5776;SDS011;2914;42.668;23.346;2023-02-05T08:51:00;7.83;;;4.05;;
5776;SDS011;2914;42.668;23.346;2023-02-05T08:53:29;4.03;;;2.90;;
5776;SDS011;2914;42.668;23.346;2023-02-05T08:55:59;5.75;;;3.40;;
5776;SDS011;2914;42.668;23.346;2023-02-05T08:58:31;6.87;;;3.83;;
5776;SDS011;2914;42.668;23.346;2023-02-05T09:01:00;4.50;;;3.72;;
5776;SDS011;2914;42.668;23.346;2023-02-05T09:03:38;7.55;;;4.10;;
5776;SDS011;2914;42.668;23.346;2023-02-05T09:06:08;10.72;;;4.47;;
5776;SDS011;2914;42.668;23.346;2023-02-05T09:08:46;8.38;;;4.08;;
5776;SDS011;2914;42.668;23.346;2023-02-05T09:11:19;5.60;;;3.70;;
5776;SDS011;2914;42.668;23.346;2023-02-05T09:16:25;5.40;;;3.15;;
5776;SDS011;2914;42.668;23.346;2023-02-05T09:18:54;5.25;;;2.90;;
5776;SDS011;2914;42.668;23.346;2023-02-05T09:21:24;3.42;;;2.85;;
5776;SDS011;2914;42.668;23.346;2023-02-05T09:23:54;3.75;;;2.90;;
5776;SDS011;2914;42.668;23.346;2023-02-05T09:26:23;5.72;;;3.37;;
5776;SDS011;2914;42.668;23.346;2023-02-05T09:28:53;3.60;;;2.50;;
5776;SDS011;2914;42.668;23.346;2023-02-05T09:31:22;2.72;;;2.40;;
5776;SDS011;2914;42.668;23.346;2023-02-05T09:33:51;6.17;;;3.35;;
5776;SDS011;2914;42.668;23.346;2023-02-05T09:36:21;8.63;;;3.35;;
5776;SDS011;2914;42.668;23.346;2023-02-05T09:41:13;2.85;;;2.65;;
5776;SDS011;2914;42.668;23.346;2023-02-05T09:43:47;2.70;;;2.50;;
5776;SDS011;2914;42.668;23.346;2023-02-05T09:46:38;3.05;;;2.40;;
5776;SDS011;2914;42.668;23.346;2023-02-05T09:49:12;5.08;;;2.30;;
5776;SDS011;2914;42.668;23.346;2023-02-05T09:51:43;5.62;;;3.77;;
5776;SDS011;2914;42.668;23.346;2023-02-05T09:54:15;2.12;;;2.02;;
5776;SDS011;2914;42.668;23.346;2023-02-05T09:56:46;2.47;;;2.37;;
5776;SDS011;2914;42.668;23.346;2023-02-05T09:59:23;2.37;;;2.10;;
5776;SDS011;2914;42.668;23.346;2023-02-05T10:01:55;2.70;;;2.22;;
5776;SDS011;2914;42.668;23.346;2023-02-05T10:04:26;2.90;;;2.70;;
5776;SDS011;2914;42.668;23.346;2023-02-05T10:07:16;5.03;;;2.85;;
5776;SDS011;2914;42.668;23.346;2023-02-05T10:13:24;8.60;;;3.80;;
5776;SDS011;2914;42.668;23.346;2023-02-05T10:19:45;2.10;;;2.00;;
5776;SDS011;2914;42.668;23.346;2023-02-05T10:22:24;2.95;;;2.70;;
5776;SDS011;2914;42.668;23.346;2023-02-05T10:25:04;3.60;;;3.30;;
5776;SDS011;2914;42.668;23.346;2023-02-05T10:28:09;5.73;;;3.60;;
5776;SDS011;2914;42.668;23.346;2023-02-05T10:31:01;3.27;;;3.07;;
5776;SDS011;2914;42.668;23.346;2023-02-05T10:33:39;3.40;;;2.50;;
5776;SDS011;2914;42.668;23.346;2023-02-05T10:36:20;6.67;;;3.53;;
5776;SDS011;2914;42.668;23.346;2023-02-05T10:38:51;5.08;;;2.90;;
5776;SDS011;2914;42.668;23.346;2023-02-05T10:41:30;3.20;;;2.20;;
5776;SDS011;2914;42.668;23.346;2023-02-05T10:44:04;3.52;;;2.80;;
5776;SDS011;2914;42.668;23.346;2023-02-05T10:46:36;2.52;;;2.33;;
5776;SDS011;2914;42.668;23.346;2023-02-05T10:49:11;5.87;;;3.00;;
5776;SDS011;2914;42.668;23.346;2023-02-05T10:51:43;4.85;;;2.33;;
5776;SDS011;2914;42.668;23.346;2023-02-05T10:54:15;5.30;;;3.05;;
5776;SDS011;2914;42.668;23.346;2023-02-05T10:56:47;2.92;;;2.50;;
5776;SDS011;2914;42.668;23.346;2023-02-05T10:59:18;9.65;;;3.98;;
5776;SDS011;2914;42.668;23.346;2023-02-05T11:01:50;4.00;;;2.37;;
5776;SDS011;2914;42.668;23.346;2023-02-05T11:04:24;3.55;;;2.25;;
5776;SDS011;2914;42.668;23.346;2023-02-05T11:06:54;5.97;;;2.95;;
5776;SDS011;2914;42.668;23.346;2023-02-05T11:09:27;7.15;;;2.83;;
5776;SDS011;2914;42.668;23.346;2023-02-05T11:11:58;8.00;;;2.50;;
5776;SDS011;2914;42.668;23.346;2023-02-05T11:14:32;6.53;;;2.55;;
5776;SDS011;2914;42.668;23.346;2023-02-05T11:17:07;5.03;;;2.72;;
5776;SDS011;2914;42.668;23.346;2023-02-05T11:19:39;7.03;;;3.15;;
5776;SDS011;2914;42.668;23.346;2023-02-05T11:22:08;10.90;;;3.70;;
5776;SDS011;2914;42.668;23.346;2023-02-05T11:25:23;2.25;;;2.15;;
5776;SDS011;2914;42.668;23.346;2023-02-05T11:27:54;2.40;;;2.25;;
5776;SDS011;2914;42.668;23.346;2023-02-05T11:30:26;2.50;;;2.40;;
5776;SDS011;2914;42.668;23.346;2023-02-05T11:32:58;5.15;;;2.80;;
5776;SDS011;2914;42.668;23.346;2023-02-05T11:35:48;5.72;;;2.83;;
5776;SDS011;2914;42.668;23.346;2023-02-05T11:38:23;2.30;;;2.17;;
5776;SDS011;2914;42.668;23.346;2023-02-05T11:40:56;11.43;;;4.50;;
5776;SDS011;2914;42.668;23.346;2023-02-05T11:43:35;3.00;;;2.77;;
5776;SDS011;2914;42.668;23.346;2023-02-05T11:46:06;3.45;;;2.62;;
5776;SDS011;2914;42.668;23.346;2023-02-05T11:48:38;4.62;;;2.70;;
5776;SDS011;2914;42.668;23.346;2023-02-05T11:51:52;3.27;;;2.08;;
5776;SDS011;2914;42.668;23.346;2023-02-05T11:54:24;2.60;;;2.40;;
5776;SDS011;2914;42.668;23.346;2023-02-05T11:57:00;2.87;;;2.58;;
5776;SDS011;2914;42.668;23.346;2023-02-05T11:59:38;2.45;;;2.27;;
5776;SDS011;2914;42.668;23.346;2023-02-05T12:05:17;2.77;;;2.50;;
5776;SDS011;2914;42.668;23.346;2023-02-05T12:07:49;2.00;;;1.80;;
5776;SDS011;2914;42.668;23.346;2023-02-05T12:10:30;4.22;;;2.85;;
5776;SDS011;2914;42.668;23.346;2023-02-05T12:13:07;3.40;;;2.45;;
5776;SDS011;2914;42.668;23.346;2023-02-05T12:15:47;2.25;;;2.12;;
5776;SDS011;2914;42.668;23.346;2023-02-05T12:18:21;3.62;;;2.90;;
5776;SDS011;2914;42.668;23.346;2023-02-05T12:21:01;3.65;;;2.80;;
5776;SDS011;2914;42.668;23.346;2023-02-05T12:23:40;6.75;;;3.55;;
5776;SDS011;2914;42.668;23.346;2023-02-05T12:26:23;4.60;;;3.22;;
5776;SDS011;2914;42.668;23.346;2023-02-05T12:29:05;5.95;;;2.45;;
5776;SDS011;2914;42.668;23.346;2023-02-05T12:31:46;4.53;;;3.25;;
5776;SDS011;2914;42.668;23.346;2023-02-05T12:34:18;7.58;;;4.10;;
5776;SDS011;2914;42.668;23.346;2023-02-05T12:37:02;3.95;;;3.15;;
5776;SDS011;2914;42.668;23.346;2023-02-05T12:39:37;4.53;;;3.27;;
5776;SDS011;2914;42.668;23.346;2023-02-05T12:42:12;10.78;;;5.03;;
5776;SDS011;2914;42.668;23.346;2023-02-05T12:45:05;4.50;;;3.25;;
5776;SDS011;2914;42.668;23.346;2023-02-05T12:48:00;6.58;;;3.12;;
5776;SDS011;2914;42.668;23.346;2023-02-05T12:50:45;3.52;;;3.30;;
5776;SDS011;2914;42.668;23.346;2023-02-05T12:53:25;6.10;;;2.85;;
5776;SDS011;2914;42.668;23.346;2023-02-05T12:56:02;3.72;;;3.27;;
5776;SDS011;2914;42.668;23.346;2023-02-05T12:58:41;7.05;;;4.22;;
5776;SDS011;2914;42.668;23.346;2023-02-05T13:01:20;3.83;;;3.33;;
5776;SDS011;2914;42.668;23.346;2023-02-05T13:03:52;3.58;;;3.33;;
5776;SDS011;2914;42.668;23.346;2023-02-05T13:06:32;4.75;;;4.28;;
5776;SDS011;2914;42.668;23.346;2023-02-05T13:11:40;7.72;;;5.60;;
5776;SDS011;2914;42.668;23.346;2023-02-05T13:14:19;9.00;;;5.75;;
5776;SDS011;2914;42.668;23.346;2023-02-05T13:19:51;11.50;;;5.08;;
5776;SDS011;2914;42.668;23.346;2023-02-05T13:22:26;5.83;;;4.77;;
5776;SDS011;2914;42.668;23.346;2023-02-05T13:25:14;9.60;;;5.73;;
5776;SDS011;2914;42.668;23.346;2023-02-05T13:31:23;10.57;;;4.27;;
5776;SDS011;2914;42.668;23.346;2023-02-05T13:33:54;5.13;;;4.60;;
5776;SDS011;2914;42.668;23.346;2023-02-05T13:36:46;12.17;;;5.87;;
5776;SDS011;2914;42.668;23.346;2023-02-05T13:42:31;5.75;;;4.17;;
5776;SDS011;2914;42.668;23.346;2023-02-05T13:48:18;11.05;;;4.42;;
5776;SDS011;2914;42.668;23.346;2023-02-05T13:51:23;10.38;;;4.85;;
5776;SDS011;2914;42.668;23.346;2023-02-05T13:54:08;5.03;;;4.05;;
5776;SDS011;2914;42.668;23.346;2023-02-05T13:57:08;5.13;;;4.03;;
5776;SDS011;2914;42.668;23.346;2023-02-05T14:00:07;8.67;;;5.10;;
5776;SDS011;2914;42.668;23.346;2023-02-05T14:02:41;10.05;;;7.10;;
5776;SDS011;2914;42.668;23.346;2023-02-05T14:05:27;7.35;;;6.58;;
5776;SDS011;2914;42.668;23.346;2023-02-05T14:07:58;9.63;;;6.87;;
5776;SDS011;2914;42.668;23.346;2023-02-05T14:11:19;7.72;;;6.92;;
5776;SDS011;2914;42.668;23.346;2023-02-05T14:16:56;8.48;;;6.50;;
5776;SDS011;2914;42.668;23.346;2023-02-05T14:19:48;14.80;;;6.72;;
5776;SDS011;2914;42.668;23.346;2023-02-05T14:22:32;12.47;;;7.22;;
5776;SDS011;2914;42.668;23.346;2023-02-05T14:25:09;13.28;;;7.12;;
5776;SDS011;2914;42.668;23.346;2023-02-05T14:27:54;12.60;;;6.90;;
5776;SDS011;2914;42.668;23.346;2023-02-05T14:30:35;11.25;;;6.65;;
5776;SDS011;2914;42.668;23.346;2023-02-05T14:33:25;11.90;;;7.42;;
5776;SDS011;2914;42.668;23.346;2023-02-05T14:39:04;7.20;;;6.30;;
5776;SDS011;2914;42.668;23.346;2023-02-05T14:41:48;11.30;;;6.35;;
5776;SDS011;2914;42.668;23.346;2023-02-05T14:44:21;10.80;;;6.50;;
5776;SDS011;2914;42.668;23.346;2023-02-05T14:47:49;15.10;;;8.00;;
5776;SDS011;2914;42.668;23.346;2023-02-05T14:50:21;14.75;;;7.60;;
5776;SDS011;2914;42.668;23.346;2023-02-05T14:52:53;15.98;;;8.08;;
5776;SDS011;2914;42.668;23.346;2023-02-05T14:55:25;11.35;;;6.60;;
5776;SDS011;2914;42.668;23.346;2023-02-05T14:57:59;14.40;;;7.55;;
5776;SDS011;2914;42.668;23.346;2023-02-05T15:00:32;12.03;;;7.05;;
5776;SDS011;2914;42.668;23.346;2023-02-05T15:03:23;9.18;;;5.65;;
5776;SDS011;2914;42.668;23.346;2023-02-05T15:05:57;6.35;;;4.62;;
5776;SDS011;2914;42.668;23.346;2023-02-05T15:08:38;8.90;;;5.72;;
5776;SDS011;2914;42.668;23.346;2023-02-05T15:11:13;7.45;;;5.92;;
5776;SDS011;2914;42.668;23.346;2023-02-05T15:20:17;12.63;;;7.10;;
5776;SDS011;2914;42.668;23.346;2023-02-05T15:22:39;12.90;;;6.17;;
5776;SDS011;2914;42.668;23.346;2023-02-05T15:25:16;15.45;;;7.97;;
5776;SDS011;2914;42.668;23.346;2023-02-05T15:27:44;13.50;;;7.00;;
5776;SDS011;2914;42.668;23.346;2023-02-05T15:30:17;13.18;;;6.85;;
5776;SDS011;2914;42.668;23.346;2023-02-05T15:32:48;17.40;;;4.97;;
5776;SDS011;2914;42.668;23.346;2023-02-05T15:35:20;15.78;;;7.35;;
5776;SDS011;2914;42.668;23.346;2023-02-05T15:37:53;13.13;;;6.90;;
5776;SDS011;2914;42.668;23.346;2023-02-05T15:40:24;11.10;;;6.33;;
5776;SDS011;2914;42.668;23.346;2023-02-05T15:42:57;12.20;;;7.05;;
5776;SDS011;2914;42.668;23.346;2023-02-05T15:45:28;12.90;;;6.80;;
5776;SDS011;2914;42.668;23.346;2023-02-05T15:47:59;16.10;;;7.20;;
5776;SDS011;2914;42.668;23.346;2023-02-05T15:50:31;14.07;;;7.12;;
5776;SDS011;2914;42.668;23.346;2023-02-05T15:53:02;13.22;;;7.30;;
5776;SDS011;2914;42.668;23.346;2023-02-05T15:55:41;13.98;;;7.53;;
5776;SDS011;2914;42.668;23.346;2023-02-05T15:58:15;12.25;;;6.72;;
5776;SDS011;2914;42.668;23.346;2023-02-05T16:00:47;14.63;;;7.83;;
5776;SDS011;2914;42.668;23.346;2023-02-05T16:03:25;13.35;;;8.38;;
5776;SDS011;2914;42.668;23.346;2023-02-05T16:05:57;8.50;;;6.30;;
5776;SDS011;2914;42.668;23.346;2023-02-05T16:08:27;10.58;;;6.67;;
5776;SDS011;2914;42.668;23.346;2023-02-05T16:10:57;10.38;;;5.95;;
5776;SDS011;2914;42.668;23.346;2023-02-05T16:13:28;12.20;;;6.50;;
5776;SDS011;2914;42.668;23.346;2023-02-05T16:15:59;12.30;;;6.17;;
5776;SDS011;2914;42.668;23.346;2023-02-05T16:18:32;10.80;;;6.33;;
5776;SDS011;2914;42.668;23.346;2023-02-05T16:21:07;9.15;;;5.33;;
5776;SDS011;2914;42.668;23.346;2023-02-05T16:23:40;13.53;;;6.17;;
5776;SDS011;2914;42.668;23.346;2023-02-05T16:26:11;13.20;;;6.05;;
5776;SDS011;2914;42.668;23.346;2023-02-05T16:28:44;8.20;;;6.33;;
5776;SDS011;2914;42.668;23.346;2023-02-05T16:31:16;14.10;;;6.67;;
5776;SDS011;2914;42.668;23.346;2023-02-05T16:33:48;16.90;;;7.10;;
5776;SDS011;2914;42.668;23.346;2023-02-05T16:36:21;10.23;;;5.47;;
5776;SDS011;2914;42.668;23.346;2023-02-05T16:38:53;19.60;;;6.87;;
5776;SDS011;2914;42.668;23.346;2023-02-05T16:41:25;19.62;;;7.25;;
5776;SDS011;2914;42.668;23.346;2023-02-05T16:43:56;15.98;;;8.33;;
5776;SDS011;2914;42.668;23.346;2023-02-05T16:46:29;11.03;;;6.85;;
5776;SDS011;2914;42.668;23.346;2023-02-05T16:48:58;16.07;;;7.58;;
5776;SDS011;2914;42.668;23.346;2023-02-05T16:54:26;13.10;;;7.20;;
5776;SDS011;2914;42.668;23.346;2023-02-05T16:57:07;13.15;;;7.12;;
5776;SDS011;2914;42.668;23.346;2023-02-05T16:59:43;8.55;;;5.62;;
5776;SDS011;2914;42.668;23.346;2023-02-05T17:02:21;10.08;;;6.30;;
5776;SDS011;2914;42.668;23.346;2023-02-05T17:04:55;11.20;;;6.87;;
5776;SDS011;2914;42.668;23.346;2023-02-05T17:07:33;9.13;;;5.12;;
5776;SDS011;2914;42.668;23.346;2023-02-05T17:13:38;6.03;;;5.37;;
5776;SDS011;2914;42.668;23.346;2023-02-05T17:16:17;10.13;;;5.83;;
5776;SDS011;2914;42.668;23.346;2023-02-05T17:18:55;12.98;;;6.53;;
5776;SDS011;2914;42.668;23.346;2023-02-05T17:21:26;9.88;;;5.90;;
5776;SDS011;2914;42.668;23.346;2023-02-05T17:23:57;9.88;;;5.47;;
5776;SDS011;2914;42.668;23.346;2023-02-05T17:26:30;10.45;;;5.97;;
5776;SDS011;2914;42.668;23.346;2023-02-05T17:29:01;17.92;;;7.67;;
5776;SDS011;2914;42.668;23.346;2023-02-05T17:31:34;10.25;;;6.42;;
5776;SDS011;2914;42.668;23.346;2023-02-05T17:34:04;10.63;;;6.85;;
5776;SDS011;2914;42.668;23.346;2023-02-05T17:36:34;6.78;;;5.08;;
5776;SDS011;2914;42.668;23.346;2023-02-05T17:39:03;15.08;;;6.75;;
5776;SDS011;2914;42.668;23.346;2023-02-05T17:41:34;8.38;;;5.42;;
5776;SDS011;2914;42.668;23.346;2023-02-05T17:44:21;12.33;;;6.15;;